createdAt,value
2018-02-07T00:00:07.926Z,24.98
2018-02-07T00:00:42.370Z,24.60
2018-02-07T00:01:16.041Z,21.65
2018-02-07T00:01:49.734Z,19.67
2018-02-07T00:02:23.406Z,20.98
2018-02-07T00:02:57.078Z,21.90
2018-02-07T00:03:31.539Z,21.87
2018-02-07T00:04:05.222Z,21.75
2018-02-07T00:04:38.931Z,23.70
2018-02-07T00:05:12.615Z,27.45
2018-02-07T00:05:46.277Z,21.48
2018-02-07T00:06:19.963Z,24.58
2018-02-07T00:06:53.633Z,22.45
2018-02-07T00:07:28.084Z,22.62
2018-02-07T00:08:01.746Z,22.25
2018-02-07T00:08:35.410Z,27.10
2018-02-07T00:09:09.061Z,23.65
2018-02-07T00:09:42.753Z,23.50
2018-02-07T00:10:16.413Z,25.85
2018-02-07T00:10:50.087Z,23.33
2018-02-07T00:11:24.527Z,26.70
2018-02-07T00:11:58.201Z,26.27
2018-02-07T00:12:31.884Z,22.23
2018-02-07T00:13:05.565Z,21.17
2018-02-07T00:13:39.285Z,21.50
2018-02-07T00:14:12.986Z,20.55
2018-02-07T00:14:46.706Z,22.42
2018-02-07T00:15:20.456Z,22.52
2018-02-07T00:15:54.158Z,29.23
2018-02-07T00:16:27.838Z,24.85
2018-02-07T00:17:01.498Z,25.30
2018-02-07T00:17:35.172Z,28.50
2018-02-07T00:18:08.862Z,21.27
2018-02-07T00:18:43.318Z,23.62
2018-02-07T00:19:16.987Z,21.08
2018-02-07T00:19:50.351Z,23.50
2018-02-07T00:20:24.793Z,23.75
2018-02-07T00:20:58.462Z,23.77
2018-02-07T00:21:32.178Z,23.45
2018-02-07T00:22:05.853Z,24.35
2018-02-07T00:22:39.526Z,26.95
2018-02-07T00:23:13.962Z,25.15
2018-02-07T00:23:47.621Z,31.37
2018-02-07T00:24:22.056Z,26.73
2018-02-07T00:24:55.750Z,24.63
2018-02-07T00:25:29.434Z,24.17
2018-02-07T00:26:03.114Z,24.27
2018-02-07T00:26:36.804Z,29.00
2018-02-07T00:27:10.470Z,25.98
2018-02-07T00:27:44.905Z,28.25
2018-02-07T00:28:18.573Z,26.23
2018-02-07T00:28:53.014Z,28.75
2018-02-07T00:29:26.674Z,28.02
2018-02-07T00:30:00.361Z,27.90
2018-02-07T00:30:34.040Z,29.10
2018-02-07T00:31:07.727Z,32.28
2018-02-07T00:31:42.182Z,29.45
2018-02-07T00:32:15.841Z,30.45
2018-02-07T00:32:49.504Z,30.37
2018-02-07T00:33:23.929Z,27.92
2018-02-07T00:33:58.380Z,28.38
2018-02-07T00:34:32.048Z,26.87
2018-02-07T00:35:05.750Z,23.62
2018-02-07T00:35:39.419Z,24.48
2018-02-07T00:36:13.103Z,25.40
2018-02-07T00:36:46.761Z,25.70
2018-02-07T00:37:20.442Z,25.62
2018-02-07T00:37:54.098Z,24.55
2018-02-07T00:38:27.751Z,25.58
2018-02-07T00:39:01.417Z,21.30
2018-02-07T00:39:35.091Z,26.50
2018-02-07T00:40:08.817Z,23.50
2018-02-07T00:40:43.262Z,25.77
2018-02-07T00:41:16.939Z,24.10
2018-02-07T00:41:50.605Z,21.80
2018-02-07T00:42:24.294Z,21.95
2018-02-07T00:42:58.725Z,25.27
2018-02-07T00:43:32.393Z,26.60
2018-02-07T00:44:06.067Z,23.95
2018-02-07T00:44:40.512Z,23.75
2018-02-07T00:45:14.203Z,24.75
2018-02-07T00:45:47.867Z,26.00
2018-02-07T00:46:22.299Z,23.12
2018-02-07T00:46:55.967Z,25.02
2018-02-07T00:47:29.662Z,21.83
2018-02-07T00:48:03.341Z,30.45
2018-02-07T00:48:37.773Z,26.83
2018-02-07T00:49:11.436Z,27.10
2018-02-07T00:49:45.883Z,26.85
2018-02-07T00:50:21.383Z,22.05
2018-02-07T00:50:55.624Z,28.65
2018-02-07T00:51:29.314Z,24.37
2018-02-07T00:52:02.996Z,24.63
2018-02-07T00:52:36.654Z,25.48
2018-02-07T00:53:10.333Z,23.38
2018-02-07T00:53:44.778Z,27.02
2018-02-07T00:54:18.456Z,21.23
2018-02-07T00:54:52.119Z,24.95
2018-02-07T00:55:26.575Z,26.12
2018-02-07T00:56:00.263Z,22.73
2018-02-07T00:56:33.934Z,27.23
2018-02-07T00:57:07.595Z,24.17
2018-02-07T00:57:42.030Z,26.50
2018-02-07T00:58:15.692Z,25.05
2018-02-07T00:58:50.134Z,25.02
2018-02-07T00:59:23.797Z,24.83
2018-02-07T00:59:58.237Z,24.27
2018-02-07T01:00:31.941Z,27.08
2018-02-07T01:01:05.625Z,24.55
2018-02-07T01:01:39.318Z,25.50
2018-02-07T01:02:12.988Z,25.02
2018-02-07T01:02:46.653Z,29.52
2018-02-07T01:03:21.097Z,25.52
2018-02-07T01:03:54.776Z,28.52
2018-02-07T01:04:28.459Z,24.45
2018-02-07T01:05:01.623Z,33.60
2018-02-07T01:05:35.755Z,24.83
2018-02-07T01:06:09.421Z,26.90
2018-02-07T01:06:43.081Z,23.77
2018-02-07T01:07:16.746Z,25.12
2018-02-07T01:07:50.416Z,22.87
2018-02-07T01:08:24.081Z,27.10
2018-02-07T01:08:57.774Z,24.37
2018-02-07T01:09:31.444Z,23.55
2018-02-07T01:10:04.825Z,23.55
2018-02-07T01:10:39.289Z,20.95
2018-02-07T01:11:12.956Z,25.75
2018-02-07T01:11:46.624Z,28.08
2018-02-07T01:12:20.297Z,25.45
2018-02-07T01:12:54.746Z,24.60
2018-02-07T01:13:28.439Z,23.65
2018-02-07T01:14:01.770Z,23.83
2018-02-07T01:14:36.229Z,23.70
2018-02-07T01:15:09.893Z,25.85
2018-02-07T01:15:43.594Z,22.33
2018-02-07T01:16:17.285Z,23.98
2018-02-07T01:16:50.961Z,23.75
2018-02-07T01:17:24.630Z,24.05
2018-02-07T01:17:59.082Z,24.60
2018-02-07T01:18:32.770Z,22.92
2018-02-07T01:19:06.448Z,31.85
2018-02-07T01:19:40.124Z,24.83
2018-02-07T01:20:13.794Z,23.73
2018-02-07T01:20:48.267Z,29.73
2018-02-07T01:21:21.935Z,23.20
2018-02-07T01:21:55.623Z,24.30
2018-02-07T01:22:29.292Z,22.87
2018-02-07T01:23:02.963Z,23.70
2018-02-07T01:23:37.416Z,26.30
2018-02-07T01:24:11.087Z,26.25
2018-02-07T01:24:44.769Z,24.98
2018-02-07T01:25:18.447Z,25.33
2018-02-07T01:25:52.918Z,23.42
2018-02-07T01:26:26.593Z,19.00
2018-02-07T01:27:00.266Z,24.02
2018-02-07T01:27:33.932Z,25.73
2018-02-07T01:28:07.598Z,21.40
2018-02-07T01:28:42.034Z,24.77
2018-02-07T01:29:16.462Z,25.42
2018-02-07T01:29:50.130Z,22.42
2018-02-07T01:30:23.818Z,25.33
2018-02-07T01:30:57.509Z,22.00
2018-02-07T01:31:31.165Z,25.60
2018-02-07T01:32:05.606Z,24.60
2018-02-07T01:32:39.278Z,22.80
2018-02-07T01:33:13.722Z,22.52
2018-02-07T01:33:47.395Z,22.85
2018-02-07T01:34:20.749Z,31.27
2018-02-07T01:34:55.205Z,20.08
2018-02-07T01:35:28.902Z,23.52
2018-02-07T01:36:02.614Z,19.95
2018-02-07T01:36:36.287Z,24.45
2018-02-07T01:37:09.964Z,21.27
2018-02-07T01:37:43.627Z,23.60
2018-02-07T01:38:17.319Z,24.58
2018-02-07T01:38:50.989Z,22.35
2018-02-07T01:39:25.449Z,24.77
2018-02-07T01:39:59.121Z,25.17
2018-02-07T01:40:32.793Z,23.10
2018-02-07T01:41:06.500Z,20.33
2018-02-07T01:41:40.174Z,19.62
2018-02-07T01:42:13.839Z,26.52
2018-02-07T01:42:48.284Z,22.62
2018-02-07T01:43:21.958Z,20.90
2018-02-07T01:43:55.643Z,23.10
2018-02-07T01:44:29.318Z,19.00
2018-02-07T01:45:03.454Z,18.52
2018-02-07T01:45:37.144Z,21.60
2018-02-07T01:46:11.211Z,20.80
2018-02-07T01:46:45.654Z,16.60
2018-02-07T01:47:19.322Z,24.35
2018-02-07T01:47:52.998Z,20.20
2018-02-07T01:48:27.441Z,21.87
2018-02-07T01:49:01.123Z,21.35
2018-02-07T01:49:34.792Z,22.48
2018-02-07T01:50:09.229Z,22.08
2018-02-07T01:50:42.915Z,21.08
2018-02-07T01:51:16.870Z,22.48
2018-02-07T01:51:51.309Z,20.20
2018-02-07T01:52:24.977Z,21.33
2018-02-07T01:52:59.432Z,22.25
2018-02-07T01:53:33.110Z,31.10
2018-02-07T01:54:06.785Z,23.27
2018-02-07T01:54:40.463Z,23.67
2018-02-07T01:55:14.151Z,20.67
2018-02-07T01:55:47.818Z,19.70
2018-02-07T01:56:21.825Z,22.73
2018-02-07T01:56:56.269Z,20.30
2018-02-07T01:57:29.948Z,22.40
2018-02-07T01:58:03.623Z,21.80
2018-02-07T01:58:38.097Z,22.98
2018-02-07T01:59:11.790Z,21.85
2018-02-07T01:59:45.513Z,23.50
2018-02-07T02:00:19.195Z,23.87
2018-02-07T02:00:52.888Z,21.52
2018-02-07T02:01:27.367Z,19.08
2018-02-07T02:02:01.065Z,20.58
2018-02-07T02:02:34.753Z,21.42
2018-02-07T02:03:08.449Z,23.73
2018-02-07T02:03:42.130Z,26.52
2018-02-07T02:04:15.810Z,22.92
2018-02-07T02:04:49.694Z,23.50
2018-02-07T02:05:23.375Z,21.15
2018-02-07T02:05:57.065Z,22.55
2018-02-07T02:06:30.780Z,20.52
2018-02-07T02:07:04.456Z,18.55
2018-02-07T02:07:38.137Z,20.95
2018-02-07T02:08:11.818Z,23.80
2018-02-07T02:08:45.492Z,21.37
2018-02-07T02:09:19.162Z,25.40
2018-02-07T02:09:53.606Z,28.80
2018-02-07T02:10:27.297Z,21.90
2018-02-07T02:11:00.998Z,21.62
2018-02-07T02:11:34.742Z,23.00
2018-02-07T02:12:08.502Z,25.02
2018-02-07T02:12:42.173Z,22.27
2018-02-07T02:13:15.888Z,18.40
2018-02-07T02:13:49.562Z,20.17
2018-02-07T02:14:23.248Z,23.83
2018-02-07T02:14:56.933Z,21.80
2018-02-07T02:15:30.601Z,25.80
2018-02-07T02:16:04.275Z,24.00
2018-02-07T02:16:37.639Z,22.75
2018-02-07T02:17:12.082Z,23.67
2018-02-07T02:17:45.745Z,20.25
2018-02-07T02:18:20.178Z,23.87
2018-02-07T02:18:53.834Z,25.45
2018-02-07T02:19:28.276Z,21.90
2018-02-07T02:20:01.941Z,23.60
2018-02-07T02:20:35.635Z,20.42
2018-02-07T02:21:09.314Z,21.00
2018-02-07T02:21:43.021Z,25.35
2018-02-07T02:22:16.703Z,21.02
2018-02-07T02:22:50.379Z,23.20
2018-02-07T02:23:24.070Z,23.48
2018-02-07T02:23:58.533Z,21.35
2018-02-07T02:24:32.220Z,21.83
2018-02-07T02:25:05.908Z,26.90
2018-02-07T02:25:39.596Z,22.02
2018-02-07T02:26:13.350Z,21.75
2018-02-07T02:26:47.057Z,19.25
2018-02-07T02:27:20.726Z,20.65
2018-02-07T02:27:54.399Z,23.30
2018-02-07T02:28:28.848Z,20.05
2018-02-07T02:29:02.509Z,22.35
2018-02-07T02:29:36.185Z,22.35
2018-02-07T02:30:10.701Z,21.73
2018-02-07T02:30:45.143Z,22.05
2018-02-07T02:31:18.808Z,23.75
2018-02-07T02:31:52.517Z,22.17
2018-02-07T02:32:26.190Z,22.20
2018-02-07T02:32:59.870Z,27.62
2018-02-07T02:33:34.324Z,23.42
2018-02-07T02:34:08.013Z,22.10
2018-02-07T02:34:41.706Z,23.52
2018-02-07T02:35:15.379Z,23.05
2018-02-07T02:36:00.262Z,22.67
2018-02-07T02:36:40.026Z,24.83
2018-02-07T02:37:14.161Z,20.10
2018-02-07T02:37:47.827Z,24.35
2018-02-07T02:38:21.518Z,23.17
2018-02-07T02:38:55.209Z,23.83
2018-02-07T02:39:28.897Z,21.33
2018-02-07T02:40:02.596Z,23.42
2018-02-07T02:40:36.278Z,23.65
2018-02-07T02:41:09.966Z,23.60
2018-02-07T02:41:43.664Z,21.52
2018-02-07T02:42:58.110Z,23.90
2018-02-07T02:43:31.777Z,20.42
2018-02-07T02:44:06.217Z,23.77
2018-02-07T02:44:39.891Z,32.83
2018-02-07T02:45:13.573Z,18.83
2018-02-07T02:45:48.017Z,21.60
2018-02-07T02:46:21.712Z,20.75
2018-02-07T02:46:55.399Z,17.25
2018-02-07T02:47:29.110Z,19.80
2018-02-07T02:48:02.810Z,17.70
2018-02-07T02:48:36.479Z,24.17
2018-02-07T02:49:10.160Z,21.25
2018-02-07T02:49:43.843Z,22.98
2018-02-07T02:50:17.505Z,19.33
2018-02-07T02:50:51.182Z,20.52
2018-02-07T02:51:25.641Z,21.92
2018-02-07T02:51:59.326Z,22.37
2018-02-07T02:52:33.013Z,17.08
2018-02-07T02:53:06.674Z,20.95
2018-02-07T02:53:40.344Z,19.37
2018-02-07T02:54:14.461Z,23.17
2018-02-07T02:54:48.146Z,20.85
2018-02-07T02:55:21.822Z,20.67
2018-02-07T02:55:56.261Z,21.92
2018-02-07T02:56:29.926Z,20.65
2018-02-07T02:57:04.372Z,21.00
2018-02-07T02:57:38.066Z,22.65
2018-02-07T02:58:11.739Z,21.25
2018-02-07T02:58:45.462Z,20.35
2018-02-07T02:59:19.147Z,20.92
2018-02-07T02:59:52.491Z,18.58
2018-02-07T03:00:26.156Z,18.92
2018-02-07T03:01:00.610Z,17.58
2018-02-07T03:01:34.298Z,24.17
2018-02-07T03:02:07.963Z,22.15
2018-02-07T03:02:41.689Z,20.10
2018-02-07T03:03:15.372Z,19.75
2018-02-07T03:03:49.075Z,19.42
2018-02-07T03:04:22.749Z,22.42
2018-02-07T03:04:56.410Z,15.85
2018-02-07T03:05:30.098Z,21.67
2018-02-07T03:06:03.788Z,19.77
2018-02-07T03:06:37.477Z,17.33
2018-02-07T03:07:11.150Z,25.60
2018-02-07T03:07:46.246Z,20.98
2018-02-07T03:08:19.919Z,16.98
2018-02-07T03:08:53.603Z,17.73
2018-02-07T03:09:27.278Z,19.15
2018-02-07T03:10:00.948Z,17.42
2018-02-07T03:10:34.639Z,17.73
2018-02-07T03:11:08.329Z,20.10
2018-02-07T03:11:42.004Z,17.42
2018-02-07T03:12:16.446Z,19.62
2018-02-07T03:12:50.142Z,14.07
2018-02-07T03:13:23.802Z,19.00
2018-02-07T03:13:57.902Z,15.93
2018-02-07T03:14:31.591Z,19.25
2018-02-07T03:15:05.287Z,18.62
2018-02-07T03:15:38.989Z,14.98
2018-02-07T03:16:12.662Z,18.10
2018-02-07T03:16:47.114Z,18.45
2018-02-07T03:17:20.804Z,16.65
2018-02-07T03:17:54.514Z,19.48
2018-02-07T03:18:28.195Z,17.60
2018-02-07T03:19:01.869Z,19.25
2018-02-07T03:19:35.566Z,20.00
2018-02-07T03:20:09.240Z,20.02
2018-02-07T03:20:42.914Z,20.35
2018-02-07T03:21:16.578Z,18.45
2018-02-07T03:21:51.029Z,16.80
2018-02-07T03:22:24.715Z,19.00
2018-02-07T03:22:58.784Z,17.35
2018-02-07T03:23:33.214Z,18.62
2018-02-07T03:24:06.878Z,17.48
2018-02-07T03:24:41.310Z,15.68
2018-02-07T03:25:14.976Z,19.33
2018-02-07T03:25:49.421Z,17.12
2018-02-07T03:26:23.114Z,21.30
2018-02-07T03:26:56.790Z,18.33
2018-02-07T03:27:30.474Z,18.05
2018-02-07T03:28:04.444Z,15.25
2018-02-07T03:28:38.893Z,16.52
2018-02-07T03:29:12.558Z,19.80
2018-02-07T03:29:46.234Z,16.08
2018-02-07T03:30:20.673Z,17.55
2018-02-07T03:30:54.349Z,14.82
2018-02-07T03:31:28.009Z,17.45
2018-02-07T03:32:02.456Z,18.80
2018-02-07T03:32:36.311Z,16.73
2018-02-07T03:33:10.785Z,18.05
2018-02-07T03:33:44.459Z,15.45
2018-02-07T03:34:18.201Z,17.15
2018-02-07T03:34:52.331Z,17.60
2018-02-07T03:35:26.016Z,15.18
2018-02-07T03:35:59.684Z,15.40
2018-02-07T03:36:34.120Z,18.05
2018-02-07T03:37:07.785Z,14.10
2018-02-07T03:37:42.217Z,19.12
2018-02-07T03:38:16.150Z,15.60
2018-02-07T03:38:49.805Z,16.80
2018-02-07T03:39:23.483Z,16.15
2018-02-07T03:39:57.150Z,18.12
2018-02-07T03:40:31.578Z,17.87
2018-02-07T03:41:04.938Z,18.67
2018-02-07T03:41:39.377Z,20.00
2018-02-07T03:42:13.057Z,17.40
2018-02-07T03:42:46.723Z,15.75
2018-02-07T03:43:21.546Z,15.88
2018-02-07T03:43:56.003Z,13.98
2018-02-07T03:44:29.685Z,17.27
2018-02-07T03:45:03.376Z,17.33
2018-02-07T03:45:37.066Z,20.37
2018-02-07T03:46:10.745Z,15.63
2018-02-07T03:46:44.410Z,16.45
2018-02-07T03:47:18.081Z,17.05
2018-02-07T03:47:52.535Z,18.50
2018-02-07T03:48:26.231Z,15.98
2018-02-07T03:48:59.913Z,17.40
2018-02-07T03:49:33.575Z,14.13
2018-02-07T03:50:08.011Z,14.90
2018-02-07T03:50:41.684Z,15.82
2018-02-07T03:51:15.349Z,16.17
2018-02-07T03:51:49.790Z,13.40
2018-02-07T03:52:23.473Z,16.40
2018-02-07T03:52:57.234Z,14.50
2018-02-07T03:53:31.695Z,16.85
2018-02-07T03:54:05.363Z,15.13
2018-02-07T03:54:39.050Z,16.85
2018-02-07T03:55:12.709Z,13.27
2018-02-07T03:55:46.372Z,15.60
2018-02-07T03:56:20.037Z,18.20
2018-02-07T03:56:53.706Z,16.35
2018-02-07T03:57:27.381Z,16.60
2018-02-07T03:58:01.802Z,20.25
2018-02-07T03:58:35.498Z,15.95
2018-02-07T03:59:09.159Z,16.17
2018-02-07T03:59:43.589Z,18.08
2018-02-07T04:00:17.251Z,15.43
2018-02-07T04:00:51.684Z,19.55
2018-02-07T04:01:25.346Z,18.27
2018-02-07T04:01:59.017Z,18.00
2018-02-07T04:02:32.347Z,14.02
2018-02-07T04:03:06.034Z,17.75
2018-02-07T04:03:39.735Z,13.68
2018-02-07T04:04:13.415Z,15.45
2018-02-07T04:04:47.134Z,15.10
2018-02-07T04:05:20.805Z,14.65
2018-02-07T04:05:54.486Z,16.73
2018-02-07T04:06:28.146Z,16.52
2018-02-07T04:07:01.813Z,12.07
2018-02-07T04:07:35.465Z,13.10
2018-02-07T04:08:09.116Z,14.02
2018-02-07T04:08:43.562Z,13.32
2018-02-07T04:09:17.236Z,18.12
2018-02-07T04:09:50.906Z,15.07
2018-02-07T04:10:25.353Z,16.92
2018-02-07T04:10:59.014Z,13.32
2018-02-07T04:11:33.430Z,12.40
2018-02-07T04:12:07.095Z,17.35
2018-02-07T04:12:41.603Z,15.07
2018-02-07T04:13:20.900Z,12.85
2018-02-07T04:13:54.581Z,15.80
2018-02-07T04:14:28.254Z,15.13
2018-02-07T04:15:01.925Z,16.37
2018-02-07T04:15:35.586Z,13.13
2018-02-07T04:16:10.031Z,16.83
2018-02-07T04:16:43.717Z,15.30
2018-02-07T04:17:17.388Z,14.80
2018-02-07T04:17:51.814Z,12.57
2018-02-07T04:18:25.505Z,15.55
2018-02-07T04:18:59.030Z,14.13
2018-02-07T04:19:32.702Z,13.85
2018-02-07T04:20:06.365Z,13.00
2018-02-07T04:20:39.693Z,14.18
2018-02-07T04:21:13.361Z,14.52
2018-02-07T04:21:47.029Z,13.18
2018-02-07T04:22:20.703Z,18.40
2018-02-07T04:22:54.365Z,13.98
2018-02-07T04:23:28.027Z,15.38
2018-02-07T04:24:01.751Z,14.05
2018-02-07T04:24:35.417Z,12.23
2018-02-07T04:25:09.094Z,14.55
2018-02-07T04:25:42.754Z,13.82
2018-02-07T04:26:16.443Z,12.00
2018-02-07T04:26:50.117Z,13.90
2018-02-07T04:27:24.546Z,12.35
2018-02-07T04:27:57.873Z,14.13
2018-02-07T04:28:32.303Z,14.98
2018-02-07T04:29:06.756Z,13.43
2018-02-07T04:29:40.419Z,14.60
2018-02-07T04:30:13.421Z,17.05
2018-02-07T04:30:47.091Z,16.77
2018-02-07T04:31:20.825Z,16.52
2018-02-07T04:31:54.505Z,16.27
2018-02-07T04:32:28.170Z,19.92
2018-02-07T04:33:01.886Z,19.08
2018-02-07T04:33:36.455Z,14.82
2018-02-07T04:34:10.399Z,13.98
2018-02-07T04:34:44.085Z,14.63
2018-02-07T04:35:17.758Z,16.48
2018-02-07T04:35:51.422Z,15.40
2018-02-07T04:36:25.099Z,23.52
2018-02-07T04:36:58.784Z,14.40
2018-02-07T04:37:33.217Z,14.82
2018-02-07T04:38:06.884Z,15.77
2018-02-07T04:38:41.313Z,13.52
2018-02-07T04:39:15.014Z,15.35
2018-02-07T04:39:48.698Z,14.98
2018-02-07T04:40:22.374Z,17.23
2018-02-07T04:40:56.062Z,16.42
2018-02-07T04:41:29.732Z,22.25
2018-02-07T04:42:04.162Z,14.95
2018-02-07T04:42:37.843Z,15.20
2018-02-07T04:43:11.170Z,15.43
2018-02-07T04:43:44.838Z,14.87
2018-02-07T04:44:18.558Z,16.17
2018-02-07T04:44:52.221Z,13.68
2018-02-07T04:45:25.882Z,13.95
2018-02-07T04:45:59.558Z,17.52
2018-02-07T04:46:33.986Z,14.80
2018-02-07T04:47:07.663Z,14.18
2018-02-07T04:47:42.102Z,14.32
2018-02-07T04:48:15.762Z,16.00
2018-02-07T04:48:49.451Z,17.20
2018-02-07T04:49:23.401Z,16.77
2018-02-07T04:49:57.065Z,22.15
2018-02-07T04:50:30.733Z,17.12
2018-02-07T04:51:04.407Z,16.67
2018-02-07T04:51:38.848Z,15.20
2018-02-07T04:52:12.509Z,16.62
2018-02-07T04:52:46.191Z,16.30
2018-02-07T04:53:20.621Z,17.80
2018-02-07T04:53:54.291Z,16.85
2018-02-07T04:54:29.041Z,14.60
2018-02-07T04:55:02.701Z,14.07
2018-02-07T04:55:36.380Z,14.32
2018-02-07T04:56:10.824Z,16.90
2018-02-07T04:56:44.497Z,17.73
2018-02-07T04:57:18.161Z,15.18
2018-02-07T04:57:52.597Z,16.40
2018-02-07T04:58:26.267Z,13.07
2018-02-07T04:59:00.696Z,18.48
2018-02-07T04:59:34.668Z,18.35
2018-02-07T05:00:09.099Z,16.67
2018-02-07T05:00:42.772Z,16.52
2018-02-07T05:01:16.448Z,17.75
2018-02-07T05:01:50.106Z,15.23
2018-02-07T05:02:23.767Z,14.65
2018-02-07T05:02:57.438Z,20.30
2018-02-07T05:03:32.069Z,15.13
2018-02-07T05:04:05.782Z,17.17
2018-02-07T05:04:39.477Z,17.58
2018-02-07T05:05:13.155Z,15.05
2018-02-07T05:05:46.831Z,18.67
2018-02-07T05:06:20.513Z,16.37
2018-02-07T05:06:54.173Z,17.73
2018-02-07T05:07:28.618Z,15.95
2018-02-07T05:08:02.293Z,16.35
2018-02-07T05:08:35.958Z,17.08
2018-02-07T05:09:10.382Z,13.68
2018-02-07T05:09:44.070Z,14.70
2018-02-07T05:10:17.839Z,21.20
2018-02-07T05:10:52.269Z,16.02
2018-02-07T05:11:25.947Z,26.87
2018-02-07T05:12:00.396Z,28.65
2018-02-07T05:12:34.071Z,19.52
2018-02-07T05:13:07.741Z,17.30
2018-02-07T05:13:41.409Z,19.37
2018-02-07T05:14:15.841Z,15.98
2018-02-07T05:14:49.543Z,15.73
2018-02-07T05:15:23.013Z,15.20
2018-02-07T05:15:56.681Z,14.82
2018-02-07T05:16:30.342Z,15.48
2018-02-07T05:17:04.005Z,14.23
2018-02-07T05:17:37.663Z,21.60
2018-02-07T05:18:12.095Z,15.10
2018-02-07T05:18:45.576Z,17.02
2018-02-07T05:19:19.253Z,13.60
2018-02-07T05:19:53.225Z,17.33
2018-02-07T05:20:27.657Z,15.52
2018-02-07T05:21:01.390Z,13.90
2018-02-07T05:21:35.057Z,16.83
2018-02-07T05:22:08.710Z,13.65
2018-02-07T05:22:43.138Z,12.70
2018-02-07T05:23:16.810Z,14.40
2018-02-07T05:23:51.251Z,15.02
2018-02-07T05:24:24.907Z,13.77
2018-02-07T05:24:59.362Z,13.30
2018-02-07T05:25:33.030Z,11.93
2018-02-07T05:26:06.689Z,12.60
2018-02-07T05:26:41.127Z,15.95
2018-02-07T05:27:14.787Z,15.23
2018-02-07T05:27:49.231Z,14.70
2018-02-07T05:28:22.898Z,14.23
2018-02-07T05:28:56.570Z,16.90
2018-02-07T05:29:31.015Z,16.08
2018-02-07T05:30:04.379Z,16.40
2018-02-07T05:30:38.045Z,19.40
2018-02-07T05:31:11.710Z,13.30
2018-02-07T05:31:45.035Z,12.65
2018-02-07T05:32:18.726Z,14.60
2018-02-07T05:32:52.397Z,13.15
2018-02-07T05:33:26.881Z,14.68
2018-02-07T05:34:00.563Z,17.55
2018-02-07T05:34:34.242Z,17.37
2018-02-07T05:35:07.954Z,16.65
2018-02-07T05:35:41.630Z,14.90
2018-02-07T05:36:15.325Z,14.60
2018-02-07T05:36:48.986Z,14.50
2018-02-07T05:37:22.669Z,16.52
2018-02-07T05:37:56.340Z,13.43
2018-02-07T05:38:30.015Z,16.15
2018-02-07T05:39:03.777Z,17.12
2018-02-07T05:39:37.452Z,20.20
2018-02-07T05:40:11.499Z,14.68
2018-02-07T05:40:45.922Z,16.20
2018-02-07T05:41:19.586Z,15.80
2018-02-07T05:41:54.022Z,17.00
2018-02-07T05:42:27.684Z,17.85
2018-02-07T05:43:02.113Z,18.55
2018-02-07T05:43:35.774Z,14.93
2018-02-07T05:44:10.219Z,14.32
2018-02-07T05:44:43.895Z,14.52
2018-02-07T05:45:17.602Z,15.02
2018-02-07T05:45:51.293Z,17.50
2018-02-07T05:46:24.813Z,17.90
2018-02-07T05:46:58.488Z,17.87
2018-02-07T05:47:32.157Z,13.60
2018-02-07T05:48:05.819Z,14.20
2018-02-07T05:48:40.250Z,15.43
2018-02-07T05:49:13.909Z,17.08
2018-02-07T05:49:48.162Z,21.48
2018-02-07T05:50:21.675Z,16.45
2018-02-07T05:50:55.338Z,14.20
2018-02-07T05:51:29.013Z,16.27
2018-02-07T05:52:02.670Z,17.10
2018-02-07T05:52:36.777Z,13.85
2018-02-07T05:53:10.460Z,17.12
2018-02-07T05:53:44.894Z,14.95
2018-02-07T05:54:18.554Z,14.18
2018-02-07T05:54:52.985Z,16.33
2018-02-07T05:55:26.683Z,18.55
2018-02-07T05:56:00.361Z,15.43
2018-02-07T05:56:34.042Z,15.00
2018-02-07T05:57:07.717Z,18.12
2018-02-07T05:57:42.155Z,18.45
2018-02-07T05:58:15.865Z,18.35
2018-02-07T05:58:49.554Z,21.90
2018-02-07T05:59:23.228Z,21.75
2018-02-07T05:59:56.930Z,23.85
2018-02-07T06:00:30.626Z,22.42
2018-02-07T06:01:04.292Z,25.62
2018-02-07T06:01:37.986Z,34.63
2018-02-07T06:02:11.670Z,31.42
2018-02-07T06:02:45.152Z,32.47
2018-02-07T06:03:18.838Z,50.30
2018-02-07T06:03:52.329Z,41.88
2018-02-07T06:04:26.003Z,32.60
2018-02-07T06:04:59.681Z,31.23
2018-02-07T06:05:33.374Z,29.85
2018-02-07T06:06:07.810Z,31.00
2018-02-07T06:06:41.494Z,25.50
2018-02-07T06:07:15.156Z,24.52
2018-02-07T06:07:48.815Z,24.65
2018-02-07T06:08:22.504Z,21.40
2018-02-07T06:08:56.175Z,22.70
2018-02-07T06:09:29.845Z,24.08
2018-02-07T06:10:03.503Z,25.42
2018-02-07T06:10:37.990Z,28.12
2018-02-07T06:11:11.661Z,23.73
2018-02-07T06:11:45.340Z,19.10
2018-02-07T06:12:19.032Z,22.10
2018-02-07T06:12:52.721Z,22.33
2018-02-07T06:13:26.205Z,23.58
2018-02-07T06:13:59.878Z,19.98
2018-02-07T06:14:33.544Z,20.23
2018-02-07T06:15:07.990Z,23.80
2018-02-07T06:15:41.688Z,20.35
2018-02-07T06:16:15.357Z,22.33
2018-02-07T06:16:49.058Z,24.02
2018-02-07T06:17:23.668Z,25.90
2018-02-07T06:17:57.333Z,19.33
2018-02-07T06:18:30.998Z,22.60
2018-02-07T06:19:04.663Z,25.92
2018-02-07T06:19:38.347Z,25.55
2018-02-07T06:20:12.030Z,22.10
2018-02-07T06:20:45.757Z,24.27
2018-02-07T06:21:19.429Z,22.10
2018-02-07T06:21:53.104Z,24.67
2018-02-07T06:22:26.920Z,30.92
2018-02-07T06:23:01.370Z,24.95
2018-02-07T06:23:35.030Z,24.27
2018-02-07T06:24:09.466Z,25.90
2018-02-07T06:24:43.135Z,25.77
2018-02-07T06:25:17.583Z,22.58
2018-02-07T06:25:51.278Z,24.90
2018-02-07T06:26:24.947Z,24.10
2018-02-07T06:26:58.622Z,25.20
2018-02-07T06:27:33.074Z,24.92
2018-02-07T06:28:06.768Z,22.45
2018-02-07T06:28:40.452Z,25.85
2018-02-07T06:29:14.125Z,24.70
2018-02-07T06:29:47.810Z,26.45
2018-02-07T06:30:21.486Z,21.17
2018-02-07T06:30:55.182Z,22.27
2018-02-07T06:31:28.865Z,26.00
2018-02-07T06:32:02.574Z,22.85
2018-02-07T06:32:36.249Z,23.00
2018-02-07T06:33:09.920Z,25.55
2018-02-07T06:33:44.377Z,21.15
2018-02-07T06:34:18.054Z,27.35
2018-02-07T06:34:52.834Z,27.37
2018-02-07T06:35:27.273Z,27.92
2018-02-07T06:36:00.770Z,23.98
2018-02-07T06:36:34.297Z,24.37
2018-02-07T06:37:07.969Z,23.85
2018-02-07T06:37:41.638Z,24.75
2018-02-07T06:38:15.293Z,28.25
2018-02-07T06:38:48.975Z,35.35
2018-02-07T06:39:23.414Z,28.10
2018-02-07T06:39:57.098Z,30.20
2018-02-07T06:40:30.759Z,31.10
2018-02-07T06:41:05.568Z,28.30
2018-02-07T06:41:40.013Z,36.65
2018-02-07T06:42:13.672Z,29.90
2018-02-07T06:42:48.110Z,33.60
2018-02-07T06:43:21.770Z,36.83
2018-02-07T06:43:56.207Z,29.77
2018-02-07T06:44:29.892Z,31.77
2018-02-07T06:45:03.361Z,29.55
2018-02-07T06:45:36.834Z,28.65
2018-02-07T06:46:11.291Z,25.45
2018-02-07T06:46:44.973Z,23.10
2018-02-07T06:47:18.648Z,23.83
2018-02-07T06:47:52.314Z,25.15
2018-02-07T06:48:25.978Z,22.85
2018-02-07T06:48:59.658Z,22.23
2018-02-07T06:49:33.325Z,20.90
2018-02-07T06:50:07.013Z,21.30
2018-02-07T06:50:40.698Z,18.42
2018-02-07T06:51:14.766Z,24.65
2018-02-07T06:51:48.435Z,20.65
2018-02-07T06:52:22.689Z,25.20
2018-02-07T06:52:56.379Z,20.75
2018-02-07T06:53:30.042Z,24.12
2018-02-07T06:54:03.414Z,19.33
2018-02-07T06:54:37.096Z,17.95
2018-02-07T06:55:11.547Z,20.85
2018-02-07T06:55:45.246Z,20.20
2018-02-07T06:56:18.958Z,19.02
2018-02-07T06:56:52.627Z,19.30
2018-02-07T06:57:26.323Z,24.17
2018-02-07T06:57:59.990Z,20.67
2018-02-07T06:58:33.655Z,23.87
2018-02-07T06:59:08.295Z,23.12
2018-02-07T06:59:41.957Z,20.20
2018-02-07T07:00:15.610Z,15.13
2018-02-07T07:00:49.325Z,21.02
2018-02-07T07:01:23.795Z,22.65
2018-02-07T07:01:57.462Z,22.60
2018-02-07T07:02:31.159Z,20.75
2018-02-07T07:03:04.841Z,17.55
2018-02-07T07:03:38.526Z,20.35
2018-02-07T07:04:12.185Z,23.38
2018-02-07T07:04:46.627Z,21.37
2018-02-07T07:05:20.314Z,20.83
2018-02-07T07:05:53.975Z,19.20
2018-02-07T07:06:27.665Z,20.55
2018-02-07T07:07:01.355Z,22.80
2018-02-07T07:07:35.134Z,22.67
2018-02-07T07:08:08.479Z,24.87
2018-02-07T07:08:42.147Z,23.10
2018-02-07T07:09:15.823Z,22.27
2018-02-07T07:09:49.503Z,23.15
2018-02-07T07:10:23.175Z,27.40
2018-02-07T07:10:57.618Z,26.77
2018-02-07T07:11:31.576Z,26.27
2018-02-07T07:12:05.250Z,26.40
2018-02-07T07:12:38.922Z,27.80
2018-02-07T07:13:12.634Z,30.83
2018-02-07T07:13:46.333Z,33.08
2018-02-07T07:14:20.765Z,29.50
2018-02-07T07:14:54.248Z,34.78
2018-02-07T07:15:27.598Z,28.40
2018-02-07T07:16:01.281Z,30.58
2018-02-07T07:16:34.981Z,35.50